createdAt,value
2017-11-10T00:02:34.944Z,95150.66
2017-11-10T00:17:34.826Z,95154.34
2017-11-10T00:32:34.286Z,95157.73
2017-11-10T00:47:34.180Z,95171.09
2017-11-10T01:02:34.096Z,95158.70
2017-11-10T01:17:38.094Z,95154.25
2017-11-10T01:32:35.026Z,95157.53
2017-11-10T01:47:34.400Z,95141.85
2017-11-10T02:02:34.335Z,95131.93
2017-11-10T02:17:36.278Z,95133.88
2017-11-10T02:32:37.270Z,95125.11
2017-11-10T02:47:34.690Z,95126.13
2017-11-10T03:02:39.614Z,95134.61
2017-11-10T03:17:36.477Z,95135.33
2017-11-10T03:32:36.420Z,95138.05
2017-11-10T03:47:34.876Z,95127.50
2017-11-10T04:02:34.829Z,95115.55
2017-11-10T04:17:34.729Z,95120.17
2017-11-10T04:32:36.662Z,95119.64
2017-11-10T04:47:34.111Z,95118.05
2017-11-10T05:02:37.034Z,95125.92
2017-11-10T05:17:34.973Z,95124.13
2017-11-10T05:32:34.952Z,95115.22
2017-11-10T05:47:34.326Z,95114.33
2017-11-10T06:02:34.405Z,95126.38
2017-11-10T06:17:34.243Z,95135.28
2017-11-10T06:32:36.718Z,95145.94
2017-11-10T06:47:35.603Z,95151.98
2017-11-10T07:02:34.527Z,95151.61
2017-11-10T07:17:35.430Z,95164.60
2017-11-10T07:32:34.847Z,95158.44
2017-11-10T07:47:34.788Z,95151.20
2017-11-10T08:02:34.713Z,95152.59
2017-11-10T08:17:35.195Z,95160.77
2017-11-10T08:32:35.119Z,95157.80
2017-11-10T08:47:34.985Z,95156.70
2017-11-10T09:02:34.442Z,95160.71
2017-11-10T09:17:34.440Z,95145.82
2017-11-10T09:32:41.544Z,95126.52
2017-11-10T09:47:42.855Z,95101.73
2017-11-10T10:02:40.738Z,95068.48
2017-11-10T10:17:45.018Z,95061.25
2017-11-10T10:32:34.506Z,95040.95
2017-11-10T10:47:35.420Z,95009.39
2017-11-10T11:02:35.338Z,94999.19
2017-11-10T11:17:35.314Z,94984.05
2017-11-10T11:32:34.787Z,94964.06
2017-11-10T11:47:34.640Z,94954.81
2017-11-10T12:02:34.639Z,94938.95
2017-11-10T12:17:34.546Z,94925.91
2017-11-10T12:32:34.986Z,94920.05
2017-11-10T12:47:34.915Z,94918.34
2017-11-10T13:02:34.858Z,94913.80
2017-11-10T13:17:36.071Z,94906.84
2017-11-10T13:32:35.125Z,94894.64
2017-11-10T13:47:35.055Z,94880.64
2017-11-10T14:02:36.994Z,94896.48
2017-11-10T14:17:35.940Z,94884.66
2017-11-10T14:32:35.397Z,94884.69
2017-11-10T14:47:35.301Z,94882.91
2017-11-10T15:02:35.262Z,94886.52
2017-11-10T15:17:37.207Z,94883.56
2017-11-10T15:32:34.564Z,94894.44
2017-11-10T15:47:34.723Z,94885.65
2017-11-10T16:02:36.435Z,94884.81
2017-11-10T16:17:35.345Z,94890.63
2017-11-10T16:32:34.281Z,94896.85
2017-11-10T16:47:34.807Z,94899.14
2017-11-10T17:02:34.638Z,94896.83
2017-11-10T17:17:34.637Z,94877.33
2017-11-10T17:32:35.041Z,94874.38
2017-11-10T17:47:37.002Z,94859.25
2017-11-10T18:02:36.974Z,94854.08
2017-11-10T18:17:36.814Z,94844.81
2017-11-10T18:32:37.243Z,94840.23
2017-11-10T18:47:35.237Z,94844.64
2017-11-10T19:02:35.026Z,94835.97
2017-11-10T19:17:35.034Z,94837.11
2017-11-10T19:32:34.509Z,94847.73
2017-11-10T19:47:39.419Z,94851.29
2017-11-10T20:02:35.357Z,94857.70
2017-11-10T20:17:35.356Z,94850.02
2017-11-10T20:32:34.734Z,94843.50
2017-11-10T20:47:34.676Z,94823.34
2017-11-10T21:02:34.641Z,94826.50
2017-11-10T21:17:35.000Z,94820.48
2017-11-10T21:32:34.995Z,94821.43
2017-11-10T21:47:34.877Z,94810.19
2017-11-10T22:02:36.881Z,94791.38
2017-11-10T22:17:34.760Z,94772.20
2017-11-10T22:32:35.161Z,94758.09
2017-11-10T22:47:35.088Z,94738.52
2017-11-10T23:02:35.028Z,94724.02
2017-11-10T23:17:34.520Z,94711.23
2017-11-10T23:32:34.462Z,94701.84
2017-11-10T23:47:35.408Z,94704.20
